createdAt,value
2018-04-29T00:01:16.104Z,20.13
2018-04-29T00:03:45.597Z,15.17
2018-04-29T00:06:13.679Z,14.73
2018-04-29T00:08:43.173Z,17.43
2018-04-29T00:11:11.141Z,15.43
2018-04-29T00:13:39.122Z,14.67
2018-04-29T00:16:07.091Z,13.67
2018-04-29T00:18:35.048Z,15.50
2018-04-29T00:21:03.017Z,23.20
2018-04-29T00:23:30.997Z,14.53
2018-04-29T00:25:59.786Z,12.87
2018-04-29T00:28:27.754Z,11.23
2018-04-29T00:30:56.431Z,18.27
2018-04-29T00:33:24.613Z,13.67
2018-04-29T00:35:52.583Z,12.87
2018-04-29T00:38:20.543Z,14.47
2018-04-29T00:40:49.948Z,22.80
2018-04-29T00:43:17.829Z,19.10
2018-04-29T00:45:45.893Z,16.57
2018-04-29T00:48:13.854Z,13.70
2018-04-29T00:50:41.819Z,13.97
2018-04-29T00:53:09.803Z,13.40
2018-04-29T00:55:37.761Z,15.67
2018-04-29T00:58:05.827Z,19.77
2018-04-29T01:00:33.898Z,14.80
2018-04-29T01:03:01.880Z,13.83
2018-04-29T01:05:29.839Z,16.23
2018-04-29T01:07:57.818Z,13.33
2018-04-29T01:10:26.608Z,17.73
2018-04-29T01:12:54.562Z,12.50
2018-04-29T01:15:22.534Z,12.97
2018-04-29T01:17:50.498Z,13.73
2018-04-29T01:20:18.574Z,18.53
2018-04-29T01:22:46.542Z,20.07
2018-04-29T01:25:14.520Z,16.87
2018-04-29T01:27:43.298Z,18.67
2018-04-29T01:30:11.279Z,22.13
2018-04-29T01:32:39.966Z,22.63
2018-04-29T01:35:08.027Z,19.53
2018-04-29T01:37:35.995Z,22.10
2018-04-29T01:40:04.064Z,19.60
2018-04-29T01:42:32.031Z,19.87
2018-04-29T01:45:00.005Z,23.93
2018-04-29T01:47:27.973Z,17.80
2018-04-29T01:49:55.938Z,21.33
2018-04-29T01:52:23.920Z,26.77
2018-04-29T01:54:51.981Z,30.37
2018-04-29T01:57:19.949Z,19.60
2018-04-29T01:59:47.928Z,20.70
2018-04-29T02:02:16.706Z,22.97
2018-04-29T02:04:44.681Z,21.47
2018-04-29T02:07:12.643Z,22.27
2018-04-29T02:09:40.614Z,25.33
2018-04-29T02:12:08.592Z,21.53
2018-04-29T02:14:36.549Z,23.67
2018-04-29T02:17:04.518Z,19.20
2018-04-29T02:19:32.488Z,20.57
2018-04-29T02:22:00.573Z,21.73
2018-04-29T02:24:30.075Z,24.67
2018-04-29T02:26:59.585Z,22.23
2018-04-29T02:29:27.549Z,21.90
2018-04-29T02:31:57.052Z,22.27
2018-04-29T02:34:25.117Z,21.40
2018-04-29T02:36:53.088Z,25.10
2018-04-29T02:39:22.381Z,22.57
2018-04-29T02:41:50.367Z,25.10
2018-04-29T02:44:19.868Z,21.50
2018-04-29T02:46:48.662Z,25.73
2018-04-29T02:49:18.264Z,24.87
2018-04-29T02:51:46.224Z,24.83
2018-04-29T02:54:14.193Z,25.80
2018-04-29T02:56:42.164Z,29.60
2018-04-29T02:59:10.073Z,25.00
2018-04-29T03:01:38.109Z,22.60
2018-04-29T03:04:07.709Z,28.77
2018-04-29T03:06:35.676Z,26.23
2018-04-29T03:09:03.846Z,20.47
2018-04-29T03:11:31.815Z,21.43
2018-04-29T03:13:59.798Z,20.03
2018-04-29T03:16:29.289Z,18.27
2018-04-29T03:18:57.261Z,16.60
2018-04-29T03:21:25.343Z,14.97
2018-04-29T03:23:54.122Z,18.03
2018-04-29T03:26:22.085Z,17.23
2018-04-29T03:28:50.361Z,17.43
2018-04-29T03:31:18.335Z,14.43
2018-04-29T03:33:46.305Z,18.30
2018-04-29T03:36:14.267Z,19.10
2018-04-29T03:38:42.237Z,15.60
2018-04-29T03:41:10.218Z,18.73
2018-04-29T03:43:38.186Z,16.57
2018-04-29T03:46:07.684Z,21.00
2018-04-29T03:48:35.648Z,23.00
2018-04-29T03:51:03.630Z,23.10
2018-04-29T03:53:31.587Z,24.63
2018-04-29T03:56:00.376Z,21.23
2018-04-29T03:58:40.324Z,26.83
2018-04-29T04:01:20.170Z,23.90
2018-04-29T04:03:55.107Z,40.83
2018-04-29T04:06:23.074Z,29.60
2018-04-29T04:08:51.045Z,27.40
2018-04-29T04:11:19.023Z,43.87
2018-04-29T04:13:47.200Z,39.00
2018-04-29T04:16:15.975Z,35.30
2018-04-29T04:18:43.943Z,36.83
2018-04-29T04:21:11.922Z,35.77
2018-04-29T04:23:41.460Z,42.40
2018-04-29T04:26:09.498Z,39.27
2018-04-29T04:28:37.463Z,37.30
2018-04-29T04:31:05.437Z,44.73
2018-04-29T04:33:33.511Z,64.83
2018-04-29T04:36:02.295Z,56.27
2018-04-29T04:38:30.359Z,52.00
2018-04-29T04:40:58.425Z,56.13
2018-04-29T04:43:26.395Z,54.50
2018-04-29T04:45:54.362Z,55.90
2018-04-29T04:48:22.331Z,62.10
2018-04-29T04:50:51.135Z,53.50
2018-04-29T04:53:19.810Z,48.53
2018-04-29T04:55:47.879Z,52.37
2018-04-29T04:58:15.850Z,57.40
2018-04-29T05:00:43.819Z,61.47
2018-04-29T05:03:11.783Z,58.47
2018-04-29T05:05:39.757Z,53.50
2018-04-29T05:08:07.721Z,49.73
2018-04-29T05:10:35.692Z,52.73
2018-04-29T05:13:03.661Z,49.30
2018-04-29T05:15:31.637Z,43.77
2018-04-29T05:18:01.132Z,46.37
2018-04-29T05:20:29.103Z,53.60
2018-04-29T05:22:57.070Z,43.80
2018-04-29T05:25:25.146Z,42.20
2018-04-29T05:27:53.224Z,43.30
2018-04-29T05:30:21.184Z,41.43
2018-04-29T05:32:49.163Z,42.03
2018-04-29T05:35:18.705Z,43.33
2018-04-29T05:37:47.449Z,33.70
2018-04-29T05:40:15.412Z,37.23
2018-04-29T05:42:43.381Z,37.20
2018-04-29T05:45:11.464Z,37.30
2018-04-29T05:47:40.957Z,37.67
2018-04-29T05:50:08.927Z,42.13
2018-04-29T05:52:37.205Z,38.83
2018-04-29T05:55:05.286Z,38.50
2018-04-29T05:57:34.784Z,42.90
2018-04-29T06:00:02.751Z,45.90
2018-04-29T06:02:30.718Z,41.57
2018-04-29T06:04:59.402Z,34.60
2018-04-29T06:07:27.371Z,36.50
2018-04-29T06:09:55.355Z,36.67
2018-04-29T06:12:23.309Z,34.27
2018-04-29T06:14:51.384Z,32.80
2018-04-29T06:17:19.350Z,22.47
2018-04-29T06:19:47.630Z,22.33
2018-04-29T06:22:15.704Z,24.90
2018-04-29T06:24:43.678Z,20.23
2018-04-29T06:27:11.636Z,19.10
2018-04-29T06:29:39.821Z,19.20
2018-04-29T06:32:08.596Z,19.67
2018-04-29T06:34:36.567Z,25.00
2018-04-29T06:37:04.639Z,21.40
2018-04-29T06:39:34.144Z,18.93
2018-04-29T06:42:02.110Z,25.77
2018-04-29T06:44:30.295Z,23.00
2018-04-29T06:46:59.092Z,22.60
2018-04-29T06:49:27.860Z,25.90
2018-04-29T06:51:55.839Z,25.73
2018-04-29T06:54:24.630Z,17.37
2018-04-29T06:56:52.586Z,21.83
2018-04-29T06:59:20.555Z,20.30
2018-04-29T07:01:48.524Z,17.80
2018-04-29T07:04:16.492Z,23.57
2018-04-29T07:06:44.473Z,18.50
2018-04-29T07:09:13.249Z,20.03
2018-04-29T07:11:41.224Z,21.47
2018-04-29T07:14:09.269Z,23.30
2018-04-29T07:16:37.265Z,22.90
2018-04-29T07:19:06.052Z,29.17
2018-04-29T07:21:34.019Z,24.17
2018-04-29T07:24:01.985Z,26.27
2018-04-29T07:26:30.145Z,25.47
2018-04-29T07:28:58.127Z,36.87
2018-04-29T07:31:26.084Z,37.50
2018-04-29T07:33:54.065Z,28.23
2018-04-29T07:36:22.037Z,38.07
2018-04-29T07:38:50.003Z,35.13
2018-04-29T07:41:17.977Z,34.30
2018-04-29T07:43:47.488Z,28.30
2018-04-29T07:46:15.445Z,29.80
2018-04-29T07:48:43.428Z,38.20
2018-04-29T07:51:11.384Z,35.27
2018-04-29T07:53:39.365Z,30.30
2018-04-29T07:56:07.322Z,31.80
2018-04-29T07:58:35.290Z,35.73
2018-04-29T08:01:03.363Z,65.03
2018-04-29T08:03:31.335Z,77.43
2018-04-29T08:05:59.413Z,28.13
2018-04-29T08:08:27.373Z,31.73
2018-04-29T08:10:55.339Z,29.67
2018-04-29T08:13:23.311Z,32.97
2018-04-29T08:15:51.279Z,30.43
2018-04-29T08:18:19.249Z,33.73
2018-04-29T08:20:47.227Z,32.03
2018-04-29T08:23:15.184Z,38.33
2018-04-29T08:25:43.152Z,26.13
2018-04-29T08:28:11.122Z,30.43
2018-04-29T08:30:39.095Z,22.70
2018-04-29T08:33:07.059Z,22.80
2018-04-29T08:35:35.029Z,20.40
2018-04-29T08:38:02.997Z,28.07
2018-04-29T08:40:30.965Z,22.93
2018-04-29T08:42:59.037Z,23.30
2018-04-29T08:45:27.020Z,23.73
2018-04-29T08:47:54.978Z,32.43
2018-04-29T08:50:23.059Z,25.80
2018-04-29T08:52:51.020Z,27.37
2018-04-29T08:55:18.987Z,25.30
2018-04-29T08:57:46.953Z,29.70
2018-04-29T09:00:14.935Z,25.37
2018-04-29T09:02:42.903Z,29.40
2018-04-29T09:05:10.861Z,35.83
2018-04-29T09:07:38.841Z,35.60
2018-04-29T09:10:06.820Z,35.00
2018-04-29T09:12:34.778Z,33.37
2018-04-29T09:15:02.736Z,35.03
2018-04-29T09:17:30.775Z,37.57
2018-04-29T09:19:58.889Z,38.07
2018-04-29T09:22:26.849Z,27.90
2018-04-29T09:24:54.828Z,36.07
2018-04-29T09:27:22.899Z,32.93
2018-04-29T09:29:50.855Z,40.73
2018-04-29T09:32:18.837Z,30.83
2018-04-29T09:34:46.908Z,36.27
2018-04-29T09:37:14.873Z,33.50
2018-04-29T09:39:43.654Z,39.03
2018-04-29T09:42:11.636Z,39.43
2018-04-29T09:44:39.590Z,42.30
2018-04-29T09:47:07.560Z,34.27
2018-04-29T09:49:35.631Z,37.30
2018-04-29T09:52:03.611Z,36.67
2018-04-29T09:54:31.681Z,32.27
2018-04-29T09:56:59.746Z,41.27
2018-04-29T09:59:27.710Z,29.57
2018-04-29T10:01:55.793Z,33.87
2018-04-29T10:04:37.487Z,29.17
2018-04-29T10:07:05.556Z,23.50
2018-04-29T10:09:33.611Z,23.70
2018-04-29T10:12:01.595Z,27.80
2018-04-29T10:14:29.552Z,25.93
2018-04-29T10:16:57.521Z,24.53
2018-04-29T10:19:25.514Z,28.93
2018-04-29T10:21:54.289Z,26.53
2018-04-29T10:24:22.251Z,35.77
2018-04-29T10:26:50.215Z,28.53
2018-04-29T10:29:18.184Z,32.97
2018-04-29T10:31:46.157Z,33.97
2018-04-29T10:34:14.134Z,24.60
2018-04-29T10:36:42.090Z,24.83
2018-04-29T10:39:10.061Z,32.90
2018-04-29T10:41:38.029Z,27.43
2018-04-29T10:44:06.010Z,28.87
2018-04-29T10:46:33.967Z,26.30
2018-04-29T10:49:01.936Z,26.63
2018-04-29T10:51:29.907Z,31.27
2018-04-29T10:53:57.877Z,26.53
2018-04-29T10:56:25.854Z,27.77
2018-04-29T10:58:53.811Z,21.60
2018-04-29T11:01:22.599Z,31.77
2018-04-29T11:03:50.569Z,25.47
2018-04-29T11:06:18.428Z,24.60
2018-04-29T11:08:46.404Z,25.87
2018-04-29T11:11:14.372Z,29.90
2018-04-29T11:13:42.353Z,22.60
2018-04-29T11:16:10.322Z,21.87
2018-04-29T11:18:38.298Z,25.63
2018-04-29T11:21:06.248Z,24.37
2018-04-29T11:23:34.220Z,27.93
2018-04-29T11:26:02.191Z,23.57
2018-04-29T11:28:30.165Z,29.03
2018-04-29T11:30:58.129Z,23.10
2018-04-29T11:33:26.104Z,23.60
2018-04-29T11:35:54.061Z,25.77
2018-04-29T11:38:22.034Z,22.93
2018-04-29T11:40:50.000Z,22.80
2018-04-29T11:43:17.967Z,24.80
2018-04-29T11:45:46.018Z,21.73
2018-04-29T11:48:14.020Z,21.47
2018-04-29T11:50:42.082Z,27.27
2018-04-29T11:53:10.047Z,21.90
2018-04-29T11:55:38.020Z,17.83
2018-04-29T11:58:05.986Z,22.83
2018-04-29T12:00:33.966Z,22.70
2018-04-29T12:03:01.923Z,19.20
2018-04-29T12:05:29.892Z,22.43
2018-04-29T12:07:57.873Z,22.40
2018-04-29T12:10:25.932Z,24.00
2018-04-29T12:12:54.011Z,24.93
2018-04-29T12:15:21.980Z,23.10
2018-04-29T12:17:49.954Z,19.70
2018-04-29T12:20:17.932Z,24.63
2018-04-29T12:22:45.885Z,25.30
2018-04-29T12:25:13.855Z,20.80
2018-04-29T12:27:41.830Z,18.57
2018-04-29T12:30:09.785Z,14.13
2018-04-29T12:32:37.758Z,17.00
2018-04-29T12:35:05.724Z,19.23
2018-04-29T12:37:33.695Z,16.70
2018-04-29T12:40:01.664Z,24.77
2018-04-29T12:42:29.645Z,16.50
2018-04-29T12:44:57.597Z,18.63
2018-04-29T12:47:25.566Z,17.83
2018-04-29T12:49:53.537Z,21.37
2018-04-29T12:52:21.555Z,20.17
2018-04-29T12:54:50.306Z,17.10
2018-04-29T12:57:18.267Z,14.70
2018-04-29T12:59:46.234Z,20.00
2018-04-29T13:02:14.208Z,13.60
2018-04-29T13:04:42.183Z,17.73
2018-04-29T13:07:10.143Z,25.73
2018-04-29T13:09:38.119Z,12.40
2018-04-29T13:12:06.178Z,14.93
2018-04-29T13:14:34.260Z,22.83
2018-04-29T13:17:02.223Z,11.40
2018-04-29T13:19:30.197Z,15.50
2018-04-29T13:21:58.264Z,18.83
2018-04-29T13:24:26.239Z,14.90
2018-04-29T13:26:54.313Z,11.23
2018-04-29T13:29:22.382Z,13.80
2018-04-29T13:31:50.341Z,14.40
2018-04-29T13:34:18.318Z,13.00
2018-04-29T13:36:46.282Z,17.70
2018-04-29T13:39:14.248Z,16.50
2018-04-29T13:41:42.216Z,25.60
2018-04-29T13:44:10.182Z,13.30
2018-04-29T13:46:38.163Z,12.30
2018-04-29T13:49:06.119Z,13.67
2018-04-29T13:51:34.203Z,15.57
2018-04-29T13:54:02.160Z,14.90
2018-04-29T13:56:30.314Z,18.83
2018-04-29T13:58:58.306Z,18.93
2018-04-29T14:01:26.287Z,18.10
2018-04-29T14:03:54.185Z,14.23
2018-04-29T14:06:22.926Z,13.60
2018-04-29T14:08:50.906Z,13.00
2018-04-29T14:11:18.869Z,12.83
2018-04-29T14:13:46.844Z,15.83
2018-04-29T14:16:14.842Z,15.57
2018-04-29T14:18:43.602Z,12.97
2018-04-29T14:21:11.562Z,12.60
2018-04-29T14:23:39.539Z,16.27
2018-04-29T14:26:07.612Z,18.23
2018-04-29T14:28:35.571Z,21.23
2018-04-29T14:31:03.540Z,19.87
2018-04-29T14:33:31.509Z,13.90
2018-04-29T14:35:59.476Z,15.03
2018-04-29T14:38:27.448Z,13.90
2018-04-29T14:40:55.416Z,11.83
2018-04-29T14:43:23.476Z,9.93
2018-04-29T14:45:52.116Z,11.00
2018-04-29T14:48:20.148Z,9.00
2018-04-29T14:50:48.106Z,9.70
2018-04-29T14:53:16.086Z,16.43
2018-04-29T14:55:44.055Z,10.07
2018-04-29T14:58:12.014Z,13.93
2018-04-29T15:00:39.996Z,10.27
2018-04-29T15:03:07.952Z,9.67
2018-04-29T15:05:36.740Z,9.63
2018-04-29T15:08:04.811Z,8.33
2018-04-29T15:10:32.819Z,9.27
2018-04-29T15:13:00.708Z,18.40
2018-04-29T15:15:28.716Z,23.03
2018-04-29T15:17:56.693Z,20.00
2018-04-29T15:20:26.189Z,18.10
2018-04-29T15:22:54.159Z,19.50
2018-04-29T15:25:22.131Z,18.80
2018-04-29T15:27:50.101Z,19.30
2018-04-29T15:30:18.073Z,27.53
2018-04-29T15:32:46.034Z,23.80
2018-04-29T15:35:14.219Z,30.37
2018-04-29T15:37:42.178Z,26.63
2018-04-29T15:40:10.156Z,37.80
2018-04-29T15:42:38.118Z,32.97
2018-04-29T15:45:06.095Z,34.77
2018-04-29T15:47:34.052Z,41.17
2018-04-29T15:50:02.035Z,38.03
2018-04-29T15:52:29.989Z,38.27
2018-04-29T15:54:57.959Z,29.37
2018-04-29T15:57:25.927Z,31.50
2018-04-29T15:59:53.910Z,39.00
2018-04-29T16:02:23.401Z,39.63
2018-04-29T16:04:51.485Z,40.67
2018-04-29T16:07:19.556Z,37.83
2018-04-29T16:09:47.513Z,43.73
2018-04-29T16:12:15.481Z,43.70
2018-04-29T16:14:43.450Z,40.80
2018-04-29T16:17:11.422Z,43.00
2018-04-29T16:19:39.400Z,42.63
2018-04-29T16:22:07.362Z,41.20
2018-04-29T16:24:35.427Z,41.03
2018-04-29T16:27:03.397Z,46.03
2018-04-29T16:29:31.365Z,44.97
2018-04-29T16:31:59.449Z,39.43
2018-04-29T16:34:27.410Z,40.73
2018-04-29T16:36:55.484Z,32.40
2018-04-29T16:39:23.445Z,32.30
2018-04-29T16:41:51.418Z,35.73
2018-04-29T16:44:19.386Z,29.00
2018-04-29T16:46:47.352Z,30.63
2018-04-29T16:49:16.248Z,35.30
2018-04-29T16:51:44.217Z,28.70
2018-04-29T16:54:12.295Z,30.27
2018-04-29T16:56:40.252Z,30.90
2018-04-29T16:59:08.222Z,29.63
2018-04-29T17:01:36.190Z,26.33
2018-04-29T17:04:04.164Z,21.47
2018-04-29T17:06:32.127Z,22.50
2018-04-29T17:09:00.212Z,15.07
2018-04-29T17:11:28.171Z,20.10
2018-04-29T17:13:56.143Z,18.50
2018-04-29T17:16:24.113Z,23.83
2018-04-29T17:18:53.616Z,26.27
2018-04-29T17:21:21.591Z,22.13
2018-04-29T17:23:49.549Z,25.03
2018-04-29T17:26:17.619Z,29.53
2018-04-29T17:28:45.600Z,32.43
2018-04-29T17:31:13.557Z,29.83
2018-04-29T17:33:41.526Z,27.07
2018-04-29T17:36:09.497Z,25.63
2018-04-29T17:38:37.463Z,25.93
2018-04-29T17:41:05.538Z,37.13
2018-04-29T17:43:33.504Z,33.80
2018-04-29T17:46:01.479Z,34.27
2018-04-29T17:48:29.447Z,38.70
2018-04-29T17:50:57.413Z,43.17
2018-04-29T17:53:25.380Z,35.13
2018-04-29T17:55:53.360Z,41.93
2018-04-29T17:58:21.433Z,42.40
2018-04-29T18:00:49.401Z,41.50
2018-04-29T18:03:17.369Z,44.60
2018-04-29T18:05:45.339Z,45.97
2018-04-29T18:08:13.295Z,41.70
2018-04-29T18:10:41.372Z,39.77
2018-04-29T18:13:09.348Z,46.67
2018-04-29T18:15:37.304Z,44.73
2018-04-29T18:18:05.278Z,41.80
2018-04-29T18:20:33.248Z,42.53
2018-04-29T18:23:01.214Z,44.10
2018-04-29T18:25:29.191Z,39.57
2018-04-29T18:27:57.266Z,44.20
2018-04-29T18:30:25.334Z,42.03
2018-04-29T18:32:53.304Z,42.37
2018-04-29T18:35:21.261Z,45.83
2018-04-29T18:37:49.232Z,38.70
2018-04-29T18:40:17.301Z,43.77
2018-04-29T18:42:45.272Z,39.23
2018-04-29T18:45:13.240Z,39.70
2018-04-29T18:47:41.207Z,33.73
2018-04-29T18:50:09.176Z,41.93
2018-04-29T18:52:37.258Z,34.07
2018-04-29T18:55:05.218Z,45.57
2018-04-29T18:57:33.188Z,37.67
2018-04-29T19:00:01.254Z,37.43
2018-04-29T19:02:29.228Z,32.80
2018-04-29T19:04:57.304Z,30.17
2018-04-29T19:07:25.380Z,36.43
2018-04-29T19:09:53.342Z,34.10
2018-04-29T19:12:21.305Z,33.77
2018-04-29T19:14:49.274Z,28.90
2018-04-29T19:17:17.246Z,31.93
2018-04-29T19:19:45.224Z,29.00
2018-04-29T19:22:13.296Z,27.47
2018-04-29T19:24:41.255Z,26.27
2018-04-29T19:27:09.223Z,26.83
2018-04-29T19:29:37.190Z,28.90
2018-04-29T19:32:05.161Z,39.87
2018-04-29T19:34:33.134Z,24.17
2018-04-29T19:37:01.109Z,31.03
2018-04-29T19:39:29.179Z,31.90
2018-04-29T19:41:57.141Z,20.90
2018-04-29T19:44:26.027Z,26.00
2018-04-29T19:46:54.001Z,25.40
2018-04-29T19:49:21.978Z,29.50
2018-04-29T19:51:49.938Z,27.03
2018-04-29T19:54:17.903Z,27.40
2018-04-29T19:56:45.875Z,24.80
2018-04-29T19:59:13.840Z,23.80
2018-04-29T20:01:41.821Z,24.93
2018-04-29T20:04:09.778Z,21.73
2018-04-29T20:06:37.748Z,22.70
2018-04-29T20:09:05.818Z,26.97
2018-04-29T20:11:33.852Z,32.50
2018-04-29T20:14:01.861Z,27.43
2018-04-29T20:16:29.833Z,21.77
2018-04-29T20:18:59.335Z,22.67
2018-04-29T20:21:27.309Z,20.80
2018-04-29T20:23:55.323Z,25.97
2018-04-29T20:26:23.345Z,25.40
2018-04-29T20:28:51.314Z,24.53
2018-04-29T20:31:19.280Z,26.97
2018-04-29T20:33:47.262Z,26.90
2018-04-29T20:36:15.218Z,23.73
2018-04-29T20:38:43.197Z,20.07
2018-04-29T20:41:11.249Z,19.43
2018-04-29T20:43:39.229Z,18.87
2018-04-29T20:46:07.196Z,16.87
2018-04-29T20:48:35.195Z,14.17
2018-04-29T20:51:03.249Z,17.70
2018-04-29T20:53:31.216Z,13.30
2018-04-29T20:55:59.996Z,14.13
2018-04-29T20:58:28.785Z,15.53
2018-04-29T21:00:57.571Z,17.80
2018-04-29T21:03:25.549Z,18.90
2018-04-29T21:05:53.509Z,12.33
2018-04-29T21:08:22.306Z,14.90
2018-04-29T21:10:50.367Z,15.70
2018-04-29T21:13:19.877Z,20.57
2018-04-29T21:15:49.272Z,12.20
2018-04-29T21:18:17.241Z,15.50
2018-04-29T21:20:45.222Z,13.00
2018-04-29T21:23:13.182Z,16.97
2018-04-29T21:25:41.971Z,18.13
2018-04-29T21:28:09.937Z,14.00
2018-04-29T21:30:37.905Z,16.73
2018-04-29T21:33:05.887Z,12.63
2018-04-29T21:35:34.675Z,13.47
2018-04-29T21:38:03.452Z,14.23
2018-04-29T21:40:31.534Z,17.00
2018-04-29T21:43:00.291Z,14.53
2018-04-29T21:45:28.291Z,15.30
2018-04-29T21:47:56.250Z,10.30
2018-04-29T21:50:25.759Z,13.93
2018-04-29T21:52:53.721Z,11.50
2018-04-29T21:55:21.691Z,14.07
2018-04-29T21:57:49.671Z,12.87
2018-04-29T22:00:17.631Z,10.83
2018-04-29T22:02:45.553Z,10.73
2018-04-29T22:05:13.578Z,11.17
2018-04-29T22:07:42.355Z,10.43
2018-04-29T22:10:10.325Z,11.77
2018-04-29T22:12:38.303Z,11.40
2018-04-29T22:15:07.795Z,11.93
2018-04-29T22:17:35.767Z,14.80
2018-04-29T22:20:03.736Z,10.00
2018-04-29T22:22:33.258Z,17.83
2018-04-29T22:25:01.229Z,10.43
2018-04-29T22:27:30.008Z,14.00
2018-04-29T22:29:57.974Z,8.93
2018-04-29T22:32:27.481Z,13.20
2018-04-29T22:34:56.366Z,11.03
2018-04-29T22:37:25.878Z,11.13
2018-04-29T22:39:53.840Z,12.40
2018-04-29T22:42:23.350Z,11.27
2018-04-29T22:44:51.321Z,12.43
2018-04-29T22:47:19.289Z,8.43
2018-04-29T22:49:47.251Z,9.83
2018-04-29T22:52:15.220Z,12.83
2018-04-29T22:54:43.182Z,13.97
2018-04-29T22:57:11.164Z,18.03
2018-04-29T22:59:39.326Z,9.73
2018-04-29T23:02:07.296Z,11.80
2018-04-29T23:04:35.376Z,10.67
2018-04-29T23:07:03.334Z,13.37
2018-04-29T23:09:31.308Z,11.70
2018-04-29T23:11:59.271Z,12.17
2018-04-29T23:14:27.255Z,10.13
2018-04-29T23:16:55.215Z,14.43
2018-04-29T23:19:24.001Z,13.13
2018-04-29T23:21:51.967Z,20.57
2018-04-29T23:24:19.903Z,6.67
2018-04-29T23:26:47.917Z,19.70
2018-04-29T23:29:15.872Z,19.87
2018-04-29T23:31:43.857Z,14.70
2018-04-29T23:34:11.811Z,12.20
2018-04-29T23:36:39.783Z,14.00
2018-04-29T23:39:07.863Z,10.87
2018-04-29T23:41:35.832Z,12.17
2018-04-29T23:44:03.798Z,11.80
2018-04-29T23:46:31.757Z,13.53
2018-04-29T23:48:59.739Z,18.43
2018-04-29T23:51:27.799Z,17.63
2018-04-29T23:53:55.883Z,12.47
2018-04-29T23:56:23.844Z,10.90
2018-04-29T23:58:53.349Z,13.70
